createdAt,value
2023-02-01T00:01:28.702Z,7.20
2023-02-01T00:03:57.098Z,9.70
2023-02-01T00:06:26.708Z,10.70
2023-02-01T00:08:55.619Z,8.60
2023-02-01T00:11:24.105Z,8.70
2023-02-01T00:13:52.496Z,9.80
2023-02-01T00:16:25.425Z,6.40
2023-02-01T00:18:58.466Z,12.00
2023-02-01T00:21:26.760Z,6.90
2023-02-01T00:23:55.173Z,11.50
2023-02-01T00:26:32.676Z,8.20
2023-02-01T00:29:02.368Z,11.20
2023-02-01T00:31:30.836Z,6.40
2023-02-01T00:33:59.173Z,12.50
2023-02-01T00:36:27.439Z,7.10
2023-02-01T00:38:56.120Z,8.60
2023-02-01T00:41:24.643Z,7.30
2023-02-01T00:43:53.206Z,7.40
2023-02-01T00:46:22.672Z,6.40
2023-02-01T00:48:51.312Z,7.50
2023-02-01T00:51:21.936Z,7.10
2023-02-01T00:53:50.333Z,6.90
2023-02-01T00:56:18.410Z,10.60
2023-02-01T00:58:46.579Z,11.90
2023-02-01T01:01:22.707Z,11.60
2023-02-01T01:03:58.225Z,8.60
2023-02-01T01:06:29.372Z,15.30
2023-02-01T01:08:58.717Z,12.10
2023-02-01T01:11:29.551Z,16.70
2023-02-01T01:13:58.331Z,17.00
2023-02-01T01:16:27.803Z,11.60
2023-02-01T01:18:57.844Z,15.40
2023-02-01T01:21:26.303Z,15.10
2023-02-01T01:23:54.467Z,11.30
2023-02-01T01:26:27.010Z,11.50
2023-02-01T01:28:58.972Z,14.10
2023-02-01T01:31:27.714Z,13.20
2023-02-01T01:33:58.572Z,14.00
2023-02-01T01:36:27.727Z,15.00
2023-02-01T01:38:55.915Z,12.10
2023-02-01T01:41:30.845Z,17.20
2023-02-01T01:44:07.416Z,16.90
2023-02-01T01:46:37.942Z,16.70
2023-02-01T01:49:18.226Z,17.00
2023-02-01T01:51:52.554Z,15.20
2023-02-01T01:54:22.407Z,13.10
2023-02-01T01:56:52.745Z,13.80
2023-02-01T01:59:22.991Z,16.40
2023-02-01T02:01:51.487Z,20.20
2023-02-01T02:04:22.073Z,18.20
2023-02-01T02:06:56.681Z,17.80
2023-02-01T02:09:24.779Z,15.60
2023-02-01T02:11:53.251Z,19.50
2023-02-01T02:14:22.532Z,19.60
2023-02-01T02:17:01.240Z,15.40
2023-02-01T02:19:51.895Z,20.00
2023-02-01T02:22:41.547Z,16.10
2023-02-01T02:25:44.337Z,15.80
2023-02-01T02:28:23.473Z,14.70
2023-02-01T02:31:01.463Z,16.30
2023-02-01T02:34:07.101Z,14.40
2023-02-01T02:37:01.002Z,12.30
2023-02-01T02:39:38.523Z,16.20
2023-02-01T02:43:03.956Z,13.30
2023-02-01T02:46:10.672Z,17.00
2023-02-01T02:48:44.965Z,23.20
2023-02-01T02:51:55.062Z,24.80
2023-02-01T02:54:44.027Z,20.90
2023-02-01T02:57:49.264Z,18.60
2023-02-01T03:00:38.049Z,16.70
2023-02-01T03:03:25.742Z,17.60
2023-02-01T03:05:54.281Z,18.80
2023-02-01T03:08:29.626Z,21.00
2023-02-01T03:11:05.428Z,14.70
2023-02-01T03:13:52.579Z,14.70
2023-02-01T03:16:28.720Z,13.40
2023-02-01T03:19:06.454Z,17.00
2023-02-01T03:22:10.283Z,20.20
2023-02-01T03:24:49.185Z,17.70
2023-02-01T03:27:25.360Z,12.50
2023-02-01T03:30:23.295Z,13.70
2023-02-01T03:33:03.112Z,14.20
2023-02-01T03:35:40.965Z,17.90
2023-02-01T03:38:12.510Z,18.20
2023-02-01T03:40:40.912Z,18.20
2023-02-01T03:43:10.349Z,14.70
2023-02-01T03:45:43.519Z,19.30
2023-02-01T03:48:12.311Z,19.80
2023-02-01T03:50:44.207Z,19.70
2023-02-01T03:53:15.912Z,19.40
2023-02-01T03:55:44.920Z,21.40
2023-02-01T03:58:20.665Z,25.90
2023-02-01T04:00:58.921Z,27.00
2023-02-01T04:03:27.811Z,23.60
2023-02-01T04:05:56.040Z,20.80
2023-02-01T04:08:27.125Z,18.10
2023-02-01T04:10:55.229Z,26.20
2023-02-01T04:13:24.607Z,21.00
2023-02-01T04:15:53.031Z,24.70
2023-02-01T04:18:21.421Z,22.10
2023-02-01T04:20:50.142Z,26.80
2023-02-01T04:23:18.209Z,26.40
2023-02-01T04:25:46.347Z,23.20
2023-02-01T04:28:15.374Z,20.90
2023-02-01T04:30:43.951Z,21.60
2023-02-01T04:33:15.091Z,24.60
2023-02-01T04:35:43.493Z,26.40
2023-02-01T04:38:11.797Z,23.40
2023-02-01T04:40:40.513Z,28.20
2023-02-01T04:43:09.202Z,27.00
2023-02-01T04:45:37.588Z,26.30
2023-02-01T04:48:06.096Z,22.40
2023-02-01T04:50:34.365Z,24.60
2023-02-01T04:53:02.439Z,14.90
2023-02-01T04:55:40.026Z,24.30
2023-02-01T05:00:48.745Z,17.20
2023-02-01T05:03:20.963Z,24.10
2023-02-01T05:05:51.037Z,22.60
2023-02-01T05:08:19.200Z,19.10
2023-02-01T05:10:49.173Z,16.10
2023-02-01T05:13:35.994Z,27.20
2023-02-01T05:16:04.763Z,20.20
2023-02-01T05:18:33.047Z,16.70
2023-02-01T05:21:02.104Z,17.00
2023-02-01T05:23:30.325Z,17.40
2023-02-01T05:26:04.786Z,21.50
2023-02-01T05:28:33.140Z,19.50
2023-02-01T05:31:01.852Z,19.10
2023-02-01T05:33:30.103Z,15.00
2023-02-01T05:35:58.208Z,17.80
2023-02-01T05:38:26.715Z,17.00
2023-02-01T05:40:56.016Z,20.30
2023-02-01T05:43:26.341Z,18.60
2023-02-01T05:45:55.251Z,22.80
2023-02-01T05:48:23.414Z,30.50
2023-02-01T05:50:51.734Z,23.20
2023-02-01T05:53:20.041Z,21.20
2023-02-01T05:55:52.035Z,20.50
2023-02-01T05:58:24.665Z,18.70
2023-02-01T06:00:53.788Z,25.80
2023-02-01T06:03:24.967Z,21.50
2023-02-01T06:05:56.257Z,16.70
2023-02-01T06:08:30.623Z,18.40
2023-02-01T06:11:03.655Z,26.60
2023-02-01T06:13:34.438Z,20.50
2023-02-01T06:16:11.558Z,22.30
2023-02-01T06:18:39.966Z,23.60
2023-02-01T06:21:09.535Z,24.30
2023-02-01T06:23:40.350Z,21.90
2023-02-01T06:26:13.714Z,21.50
2023-02-01T06:28:41.924Z,23.50
2023-02-01T06:31:10.263Z,27.10
2023-02-01T06:33:38.863Z,21.50
2023-02-01T06:36:16.267Z,19.70
2023-02-01T06:38:51.221Z,21.70
2023-02-01T06:41:24.534Z,20.20
2023-02-01T06:43:52.960Z,28.30
2023-02-01T06:46:25.877Z,26.90
2023-02-01T06:48:55.782Z,23.80
2023-02-01T06:51:26.474Z,22.00
2023-02-01T06:53:54.726Z,25.10
2023-02-01T06:56:23.037Z,25.40
2023-02-01T06:58:57.645Z,21.90
2023-02-01T07:01:28.001Z,23.50
2023-02-01T07:04:02.526Z,23.30
2023-02-01T07:09:03.459Z,21.70
2023-02-01T07:11:34.261Z,15.80
2023-02-01T07:14:06.228Z,26.90
2023-02-01T07:16:34.990Z,21.00
2023-02-01T07:19:03.281Z,21.30
2023-02-01T07:21:31.586Z,26.80
2023-02-01T07:24:04.661Z,23.80
2023-02-01T07:26:33.831Z,23.20
2023-02-01T07:29:04.059Z,16.80
2023-02-01T07:31:32.452Z,23.20
2023-02-01T07:34:04.128Z,16.60
2023-02-01T07:36:39.052Z,20.80
2023-02-01T07:39:14.450Z,27.70
2023-02-01T07:41:47.632Z,24.80
2023-02-01T07:44:24.409Z,23.00
2023-02-01T07:46:52.769Z,19.90
2023-02-01T07:52:23.195Z,28.00
2023-02-01T07:54:53.735Z,19.00
2023-02-01T07:57:24.773Z,21.50
2023-02-01T08:00:19.582Z,21.90
2023-02-01T08:02:47.831Z,21.80
2023-02-01T08:05:22.601Z,24.50
2023-02-01T08:08:02.054Z,16.70
2023-02-01T08:10:34.686Z,20.70
2023-02-01T08:13:06.123Z,17.50
2023-02-01T08:15:35.707Z,23.00
2023-02-01T08:18:06.739Z,22.80
2023-02-01T08:20:40.814Z,23.30
2023-02-01T08:23:11.717Z,21.60
2023-02-01T08:25:43.205Z,19.50
2023-02-01T08:28:17.313Z,24.60
2023-02-01T08:30:48.008Z,22.40
2023-02-01T08:33:18.816Z,25.70
2023-02-01T08:35:50.101Z,23.30
2023-02-01T08:38:23.538Z,24.10
2023-02-01T08:41:05.539Z,18.00
2023-02-01T08:43:39.242Z,20.80
2023-02-01T08:46:13.093Z,15.20
2023-02-01T08:48:44.988Z,19.50
2023-02-01T08:51:17.179Z,17.70
2023-02-01T08:53:45.517Z,16.80
2023-02-01T08:56:17.726Z,22.40
2023-02-01T09:01:19.167Z,24.30
2023-02-01T09:03:47.516Z,16.60
2023-02-01T09:06:19.176Z,18.30
2023-02-01T09:08:54.785Z,16.90
2023-02-01T09:11:27.941Z,16.00
2023-02-01T09:13:57.480Z,15.70
2023-02-01T09:16:26.077Z,20.40
2023-02-01T09:19:21.837Z,14.60
2023-02-01T09:21:46.064Z,24.30
2023-02-01T09:24:17.322Z,13.50
2023-02-01T09:26:45.724Z,14.00
2023-02-01T09:29:19.233Z,14.40
2023-02-01T09:32:02.950Z,18.10
2023-02-01T09:34:32.916Z,16.40
2023-02-01T09:37:01.973Z,16.90
2023-02-01T09:39:31.274Z,20.00
2023-02-01T09:42:30.329Z,15.30
2023-02-01T09:45:29.298Z,14.50
2023-02-01T09:48:05.133Z,15.60
2023-02-01T09:50:48.064Z,14.10
2023-02-01T09:53:43.727Z,14.60
2023-02-01T09:56:23.916Z,17.40
2023-02-01T09:59:21.673Z,14.50
2023-02-01T10:02:01.380Z,17.40
2023-02-01T10:04:30.731Z,13.80
2023-02-01T10:07:20.188Z,15.10
2023-02-01T10:10:10.220Z,14.00
2023-02-01T10:13:24.268Z,19.00
2023-02-01T10:16:18.023Z,18.60
2023-02-01T10:18:53.047Z,14.80
2023-02-01T10:24:18.068Z,15.30
2023-02-01T10:26:55.481Z,14.20
2023-02-01T10:29:25.425Z,17.60
2023-02-01T10:31:53.717Z,14.40
2023-02-01T10:34:24.117Z,21.30
2023-02-01T10:37:01.462Z,18.50
2023-02-01T10:39:29.707Z,18.10
2023-02-01T10:41:58.449Z,14.50
2023-02-01T10:44:28.893Z,13.70
2023-02-01T10:46:57.087Z,17.60
2023-02-01T10:49:35.016Z,11.10
2023-02-01T10:52:10.800Z,18.40
2023-02-01T10:54:39.593Z,15.60
2023-02-01T10:57:09.704Z,15.60
2023-02-01T10:59:38.675Z,14.20
2023-02-01T11:02:35.720Z,12.40
2023-02-01T11:05:13.281Z,13.40
2023-02-01T11:08:00.884Z,15.10
2023-02-01T11:10:42.905Z,11.20
2023-02-01T11:13:17.424Z,8.60
2023-02-01T11:15:47.115Z,13.30
2023-02-01T11:18:19.981Z,15.60
2023-02-01T11:20:50.583Z,16.80
2023-02-01T11:23:44.356Z,11.80
2023-02-01T11:26:24.379Z,16.20
2023-02-01T11:29:06.205Z,15.80
2023-02-01T11:31:34.532Z,26.70
2023-02-01T11:34:14.384Z,20.90
2023-02-01T11:36:42.955Z,18.60
2023-02-01T11:39:14.174Z,24.80
2023-02-01T11:42:07.561Z,22.10
2023-02-01T11:44:39.022Z,26.00
2023-02-01T11:47:40.630Z,16.90
2023-02-01T11:50:20.049Z,52.30
2023-02-01T11:53:09.099Z,21.90
2023-02-01T11:56:05.253Z,18.90
2023-02-01T11:58:51.520Z,18.30
2023-02-01T12:01:44.929Z,19.10
2023-02-01T12:04:31.701Z,19.00
2023-02-01T12:07:17.711Z,18.10
2023-02-01T12:10:31.580Z,15.60
2023-02-01T12:13:20.312Z,19.60
2023-02-01T12:15:55.355Z,15.30
2023-02-01T12:18:35.864Z,21.30
2023-02-01T12:21:31.964Z,17.20
2023-02-01T12:24:24.737Z,16.00
2023-02-01T12:27:30.540Z,18.50
2023-02-01T12:30:29.565Z,17.50
2023-02-01T12:33:36.110Z,15.50
2023-02-01T12:36:08.121Z,15.20
2023-02-01T12:39:01.325Z,17.50
2023-02-01T12:41:43.764Z,18.50
2023-02-01T12:44:32.642Z,19.20
2023-02-01T12:47:13.206Z,16.50
2023-02-01T12:49:44.743Z,17.00
2023-02-01T12:52:19.829Z,16.10
2023-02-01T12:54:53.027Z,17.00
2023-02-01T12:57:28.041Z,11.80
2023-02-01T13:00:11.188Z,16.40
2023-02-01T13:02:51.492Z,19.90
2023-02-01T13:05:25.551Z,15.30
2023-02-01T13:08:05.795Z,16.60
2023-02-01T13:10:51.671Z,16.40
2023-02-01T13:13:46.282Z,14.50
2023-02-01T13:16:33.767Z,15.10
2023-02-01T13:22:08.978Z,17.70
2023-02-01T13:24:51.675Z,15.60
2023-02-01T13:27:24.020Z,17.70
2023-02-01T13:30:12.878Z,19.90
2023-02-01T13:33:53.267Z,17.20
2023-02-01T13:36:01.859Z,17.30
2023-02-01T13:41:16.407Z,25.10
2023-02-01T13:43:53.526Z,15.00
2023-02-01T13:46:29.885Z,17.20
2023-02-01T13:49:01.459Z,17.20
2023-02-01T13:51:47.127Z,15.80
2023-02-01T13:54:36.325Z,16.20
2023-02-01T13:57:06.009Z,14.50
2023-02-01T13:59:41.769Z,13.60
2023-02-01T14:02:41.510Z,13.10
2023-02-01T14:05:24.674Z,16.00
2023-02-01T14:08:05.636Z,17.30
2023-02-01T14:10:50.554Z,14.10
2023-02-01T14:13:38.709Z,12.10
2023-02-01T14:16:17.276Z,11.30
2023-02-01T14:18:47.431Z,11.60
2023-02-01T14:21:29.469Z,11.40
2023-02-01T14:24:11.011Z,14.40
2023-02-01T14:26:39.089Z,14.90
2023-02-01T14:29:20.717Z,15.70
2023-02-01T14:32:18.203Z,16.70
2023-02-01T14:34:49.399Z,14.70
2023-02-01T14:37:17.502Z,14.40
2023-02-01T14:39:45.547Z,15.90
2023-02-01T14:42:27.196Z,16.80
2023-02-01T14:44:58.711Z,16.30
2023-02-01T14:47:30.040Z,17.70
2023-02-01T14:50:03.916Z,16.70
2023-02-01T14:52:35.430Z,18.00
2023-02-01T14:55:08.317Z,20.30
2023-02-01T14:57:38.689Z,19.60
2023-02-01T15:00:18.572Z,21.20
2023-02-01T15:02:50.575Z,15.70
2023-02-01T15:05:31.798Z,16.50
2023-02-01T15:08:14.921Z,16.10
2023-02-01T15:10:45.819Z,22.00
2023-02-01T15:13:24.779Z,25.90
2023-02-01T15:16:05.847Z,27.30
2023-02-01T15:18:33.983Z,25.60
2023-02-01T15:21:26.374Z,28.60
2023-02-01T15:24:11.650Z,18.80
2023-02-01T15:26:40.114Z,28.70
2023-02-01T15:29:12.455Z,30.30
2023-02-01T15:31:48.496Z,33.40
2023-02-01T15:34:17.685Z,28.60
2023-02-01T15:37:02.130Z,31.90
2023-02-01T15:39:32.460Z,29.50
2023-02-01T15:42:19.858Z,27.70
2023-02-01T15:44:47.961Z,23.00
2023-02-01T15:47:21.333Z,19.40
2023-02-01T15:49:52.819Z,23.30
2023-02-01T15:52:41.256Z,17.60
2023-02-01T15:55:18.181Z,19.80
2023-02-01T15:57:49.248Z,19.30
2023-02-01T16:00:28.481Z,17.40
2023-02-01T16:03:00.585Z,27.10
2023-02-01T16:05:39.692Z,22.70
2023-02-01T16:08:24.477Z,24.60
2023-02-01T16:11:03.164Z,24.70
2023-02-01T16:13:32.102Z,22.50
2023-02-01T16:16:00.528Z,23.10
2023-02-01T16:18:29.305Z,23.30
2023-02-01T16:20:57.527Z,15.60
2023-02-01T16:23:26.167Z,21.50
2023-02-01T16:25:54.567Z,16.10
2023-02-01T16:28:23.246Z,22.90
2023-02-01T16:30:52.374Z,17.20
2023-02-01T16:33:23.404Z,18.20
2023-02-01T16:35:51.981Z,19.10
2023-02-01T16:38:26.261Z,28.30
2023-02-01T16:40:58.757Z,28.80
2023-02-01T16:43:30.831Z,33.30
2023-02-01T16:46:01.080Z,33.70
2023-02-01T16:48:39.003Z,28.50
2023-02-01T16:51:11.874Z,29.50
2023-02-01T16:53:53.949Z,27.70
2023-02-01T16:56:25.238Z,26.20
2023-02-01T16:58:59.452Z,26.00
2023-02-01T17:01:33.720Z,21.70
2023-02-01T17:04:06.990Z,23.50
2023-02-01T17:06:40.320Z,16.70
2023-02-01T17:09:10.771Z,20.50
2023-02-01T17:11:40.028Z,20.00
2023-02-01T17:14:19.386Z,19.60
2023-02-01T17:16:48.882Z,21.30
2023-02-01T17:19:19.183Z,20.70
2023-02-01T17:21:50.657Z,20.40
2023-02-01T17:24:20.572Z,17.40
2023-02-01T17:26:54.075Z,19.80
2023-02-01T17:29:24.637Z,20.10
2023-02-01T17:31:55.153Z,28.40
2023-02-01T17:34:23.661Z,21.90
2023-02-01T17:36:52.464Z,19.40
2023-02-01T17:39:39.278Z,24.70
2023-02-01T17:42:10.786Z,16.80
2023-02-01T17:44:40.165Z,23.90
2023-02-01T17:47:08.490Z,23.60
2023-02-01T17:49:38.932Z,19.60
2023-02-01T17:52:17.681Z,24.60
2023-02-01T17:57:39.440Z,19.80
2023-02-01T18:00:09.473Z,26.30
2023-02-01T18:02:41.100Z,22.00
2023-02-01T18:05:27.708Z,25.70
2023-02-01T18:07:59.241Z,26.40
2023-02-01T18:10:27.952Z,26.00
2023-02-01T18:12:57.668Z,17.70
2023-02-01T18:15:26.226Z,23.10
2023-02-01T18:17:54.721Z,21.40
2023-02-01T18:20:24.465Z,24.00
2023-02-01T18:22:52.885Z,21.60
2023-02-01T18:25:23.028Z,21.40
2023-02-01T18:27:53.296Z,24.90
2023-02-01T18:30:23.650Z,24.90
2023-02-01T18:32:52.194Z,31.00
2023-02-01T18:35:25.244Z,25.10
2023-02-01T18:37:55.190Z,24.40
2023-02-01T18:40:33.141Z,26.60
2023-02-01T18:43:01.577Z,28.10
2023-02-01T18:45:40.427Z,25.10
2023-02-01T18:48:10.149Z,18.70
2023-02-01T18:50:40.600Z,15.90
2023-02-01T18:53:13.027Z,18.60
2023-02-01T18:55:41.615Z,20.50
2023-02-01T18:58:12.303Z,19.70
2023-02-01T19:00:40.474Z,19.30
2023-02-01T19:03:13.232Z,18.80
2023-02-01T19:05:41.731Z,18.20
2023-02-01T19:08:11.961Z,21.40
2023-02-01T19:10:44.758Z,20.70
2023-02-01T19:13:16.020Z,20.70
2023-02-01T19:15:44.348Z,18.90
2023-02-01T19:18:12.524Z,18.20
2023-02-01T19:20:41.475Z,21.10
2023-02-01T19:23:09.696Z,17.40
2023-02-01T19:25:37.979Z,15.40
2023-02-01T19:28:06.693Z,17.50
2023-02-01T19:30:35.116Z,18.10
2023-02-01T19:33:04.771Z,17.90
2023-02-01T19:35:33.361Z,21.10
2023-02-01T19:38:01.838Z,16.50
2023-02-01T19:40:30.169Z,19.70
2023-02-01T19:42:58.252Z,21.50
2023-02-01T19:45:26.652Z,20.60
2023-02-01T19:47:57.911Z,20.70
2023-02-01T19:50:26.190Z,17.60
2023-02-01T19:52:56.764Z,14.90
2023-02-01T19:55:28.504Z,17.90
2023-02-01T20:00:59.711Z,16.40
2023-02-01T20:03:31.391Z,18.40
2023-02-01T20:06:03.645Z,14.30
2023-02-01T20:08:36.808Z,13.70
2023-02-01T20:11:09.449Z,14.50
2023-02-01T20:13:41.332Z,14.50
2023-02-01T20:16:11.394Z,16.00
2023-02-01T20:18:40.136Z,16.90
2023-02-01T20:21:08.341Z,20.10
2023-02-01T20:23:36.939Z,14.00
2023-02-01T20:26:07.977Z,13.60
2023-02-01T20:28:36.579Z,13.60
2023-02-01T20:31:04.980Z,14.80
2023-02-01T20:33:33.492Z,23.90
2023-02-01T20:36:01.654Z,12.40
2023-02-01T20:38:30.227Z,12.70
2023-02-01T20:41:05.984Z,18.00
2023-02-01T20:43:34.452Z,15.00
2023-02-01T20:46:03.135Z,17.40
2023-02-01T20:48:31.811Z,14.90
2023-02-01T20:51:00.653Z,19.10
2023-02-01T20:53:28.939Z,19.70
2023-02-01T20:55:58.442Z,22.90
2023-02-01T20:58:26.986Z,22.90
2023-02-01T21:00:55.167Z,16.00
2023-02-01T21:03:24.027Z,19.70
2023-02-01T21:05:53.906Z,22.90
2023-02-01T21:08:23.299Z,17.30
2023-02-01T21:11:02.069Z,20.20
2023-02-01T21:13:31.839Z,19.40
2023-02-01T21:16:00.019Z,21.00
2023-02-01T21:18:29.134Z,23.20
2023-02-01T21:20:58.313Z,16.00
2023-02-01T21:23:27.351Z,17.70
2023-02-01T21:25:55.422Z,20.40
2023-02-01T21:28:23.479Z,20.80
2023-02-01T21:30:51.585Z,15.80
2023-02-01T21:33:20.347Z,15.80
2023-02-01T21:35:50.693Z,21.50
2023-02-01T21:38:18.820Z,21.30
2023-02-01T21:41:09.533Z,21.30
2023-02-01T21:43:38.500Z,20.50
2023-02-01T21:46:08.492Z,21.20
2023-02-01T21:49:04.485Z,22.80
2023-02-01T21:51:27.393Z,19.10
2023-02-01T21:53:56.381Z,18.30
2023-02-01T21:56:24.587Z,13.30
2023-02-01T21:58:52.778Z,18.70
2023-02-01T22:01:21.070Z,23.90
2023-02-01T22:03:49.490Z,17.40
2023-02-01T22:06:27.700Z,18.60
2023-02-01T22:08:56.479Z,16.80
2023-02-01T22:11:25.336Z,14.20
2023-02-01T22:13:53.695Z,19.60
2023-02-01T22:16:22.469Z,10.60
2023-02-01T22:18:51.441Z,17.10
2023-02-01T22:21:20.228Z,13.70
2023-02-01T22:23:54.439Z,17.20
2023-02-01T22:26:22.876Z,15.90
2023-02-01T22:28:51.201Z,13.90
2023-02-01T22:31:19.759Z,12.00
2023-02-01T22:33:49.317Z,14.90
2023-02-01T22:36:18.057Z,15.30
2023-02-01T22:38:46.883Z,18.70
2023-02-01T22:41:14.960Z,14.40
2023-02-01T22:43:43.440Z,14.80
2023-02-01T22:46:14.046Z,17.50
2023-02-01T22:48:43.175Z,13.30
2023-02-01T22:51:23.894Z,13.40
2023-02-01T22:53:58.278Z,17.90
2023-02-01T22:56:37.394Z,15.50
2023-02-01T22:59:06.999Z,15.80
2023-02-01T23:01:35.282Z,17.80
2023-02-01T23:04:11.828Z,17.30
2023-02-01T23:06:40.844Z,19.10
2023-02-01T23:09:19.172Z,16.30
2023-02-01T23:11:47.562Z,12.60
2023-02-01T23:14:16.245Z,12.30
2023-02-01T23:16:45.351Z,12.50
2023-02-01T23:19:13.568Z,13.10
2023-02-01T23:21:42.215Z,20.50
2023-02-01T23:24:11.335Z,14.60
2023-02-01T23:26:39.985Z,14.50
2023-02-01T23:29:10.049Z,10.80
2023-02-01T23:31:38.334Z,21.40
2023-02-01T23:34:06.697Z,18.00
2023-02-01T23:36:35.598Z,13.70
2023-02-01T23:39:03.744Z,17.50
2023-02-01T23:41:33.802Z,18.20
2023-02-01T23:44:02.062Z,17.00
2023-02-01T23:46:35.835Z,18.20
2023-02-01T23:49:05.726Z,16.20
2023-02-01T23:51:34.508Z,22.50
2023-02-01T23:54:02.907Z,19.30
2023-02-01T23:56:34.198Z,20.20
2023-02-01T23:59:04.069Z,18.00
